CheckWX is a tool to help pilots better visualize weather data.  It is not intended as a substitute for an official pre-flight weather briefing.

02:11:34 UTC

CYZX TAF
CFB Greenwood Airport
Greenwood, Canada
TAF AMD CYZX 230103Z 2301/2324 06015KT 6SM -RA BR SCT005 OVC015 TEMPO 2301/2309 2SM -RA -DZ BR OVC005 FM230900 07012KT 6SM RA BR BKN006 OVC012 FM231200 07010KT 6SM -RA -DZ SCT006 OVC012 FM231800 12008KT 6SM -RA -DZ SCT010 OVC015 RMK NXT FCST BY 230600Z

Apr-23@
01:00 UTC

Apr-23 @ 01:00 UTC

Apr-23@
09:00 UTC

Apr-23 @ 09:00 UTC

TAF AMD CYZX 230103Z 2301/2324 06015KT 6SM -RA BR SCT005 OVC015
Wind
  • 060° at 15 KTS
Conditions
Light Rain, Mist
Cloud Levels
  • Scattered at 500' AGL
  • Overcast at 1,500' AGL

Apr-23@
01:00 UTC

Apr-23 @ 01:00 UTC

Apr-23@
09:00 UTC

Apr-23 @ 09:00 UTC

TEMPO 2301/2309 2SM -RA -DZ BR OVC005

Temporary

Temporary Changes expected for less than half the time period

Conditions
Light Rain, Light Drizzle, Mist
Cloud Levels
  • Overcast at 500' AGL

Apr-23@
09:00 UTC

Apr-23 @ 09:00 UTC

Apr-23@
12:00 UTC

Apr-23 @ 12:00 UTC

FM230900 07012KT 6SM RA BR BKN006 OVC012

From

From Standard forecast or significant change

Wind
  • 070° at 12 KTS
Conditions
Rain, Mist
Cloud Levels
  • Broken at 600' AGL
  • Overcast at 1,200' AGL

Apr-23@
12:00 UTC

Apr-23 @ 12:00 UTC

Apr-23@
18:00 UTC

Apr-23 @ 18:00 UTC

FM231200 07010KT 6SM -RA -DZ SCT006 OVC012

From

From Standard forecast or significant change

Wind
  • 070° at 10 KTS
Conditions
Light Rain, Light Drizzle
Cloud Levels
  • Scattered at 600' AGL
  • Overcast at 1,200' AGL

Apr-23@
18:00 UTC

Apr-23 @ 18:00 UTC

Apr-24@
00:00 UTC

Apr-24 @ 00:00 UTC

FM231800 12008KT 6SM -RA -DZ SCT010 OVC015 RMK NXT FCST BY 230600Z

From

From Standard forecast or significant change

Wind
  • 120° at 8 KTS
Conditions
Light Rain, Light Drizzle
Cloud Levels
  • Scattered at 1,000' AGL
  • Overcast at 1,500' AGL